Time;durP1;ratioP1;P1;durP2;ratioP2;P2;SDS_P1;SDS_P2;PMS_P1;PMS_P2;Temp;Humidity;BMP_temperature;BMP_pressure;BME280_temperature;BME280_humidity;BME280_pressure;Samples;Min_cycle;Max_cycle;Signal;HPM_P1;HPM_P2
2022/08/03 00:01:15;;;;;;;3.53;0.90;;;14.10;99.90;;;;;;4952630;29;20071;-83
2022/08/03 00:03:42;;;;;;;1.55;0.80;;;14.30;99.90;;;;;;4949076;29;20522;-83
2022/08/03 00:06:10;;;;;;;2.10;0.85;;;14.30;99.90;;;;;;4934455;29;20035;-78
2022/08/03 00:08:37;;;;;;;1.50;0.70;;;14.40;99.90;;;;;;4938623;29;20530;-79
2022/08/03 00:11:05;;;;;;;0.60;0.40;;;14.50;99.90;;;;;;4941283;28;20035;-80
2022/08/03 00:13:33;;;;;;;0.82;0.40;;;14.80;99.90;;;;;;4944965;28;20481;-79
2022/08/03 00:16:01;;;;;;;5.97;0.82;;;14.90;99.90;;;;;;4947639;28;20031;-81
2022/08/03 00:18:28;;;;;;;1.05;0.40;;;15.20;99.90;;;;;;4948302;28;20130;-77
2022/08/03 00:20:56;;;;;;;1.70;0.73;;;15.60;99.60;;;;;;4933544;28;20032;-82
2022/08/03 00:23:23;;;;;;;2.65;0.52;;;16.40;99.30;;;;;;4938198;28;20061;-79
2022/08/03 00:25:51;;;;;;;1.10;0.32;;;16.50;98.20;;;;;;4947625;28;20089;-78
2022/08/03 00:28:18;;;;;;;2.88;0.43;;;16.60;98.30;;;;;;4941143;28;20027;-80
2022/08/03 00:30:45;;;;;;;0.60;0.40;;;16.50;98.40;;;;;;4942659;28;20083;-80
2022/08/03 00:33:14;;;;;;;4.05;0.47;;;16.80;98.30;;;;;;4934443;28;20058;-80
2022/08/03 00:35:41;;;;;;;1.27;0.55;;;17.70;96.70;;;;;;4945657;28;20138;-79
2022/08/03 00:38:09;;;;;;;2.38;0.40;;;18.80;96.00;;;;;;4945972;28;20035;-78
2022/08/03 00:40:36;;;;;;;0.68;0.20;;;20.10;94.60;;;;;;4950785;29;20039;-84
2022/08/03 00:43:06;;;;;;;2.10;0.35;;;20.80;93.30;;;;;;4943300;28;20065;-80
2022/08/03 00:45:38;;;;;;;1.30;0.40;;;20.50;93.50;;;;;;4938828;28;20049;-79
2022/08/03 00:48:07;;;;;;;2.05;0.52;;;20.70;93.00;;;;;;4945307;28;20034;-84
2022/08/03 00:50:39;;;;;;;1.30;0.40;;;20.40;93.40;;;;;;4946731;28;20031;-82
2022/08/03 00:53:13;;;;;;;0.95;0.28;;;20.30;93.70;;;;;;4946254;28;20031;-82
2022/08/03 00:55:42;;;;;;;2.17;0.38;;;20.10;93.60;;;;;;4944279;28;20023;-85
2022/08/03 00:58:10;;;;;;;0.45;0.30;;;20.00;93.60;;;;;;4944591;29;20030;-86
2022/08/03 01:00:40;;;;;;;0.50;0.20;;;20.80;93.90;;;;;;4937243;28;20035;-84
2022/08/03 01:03:09;;;;;;;0.82;0.50;;;21.70;92.50;;;;;;4944958;28;20031;-83
2022/08/03 01:05:55;;;;;;;0.85;0.30;;;22.80;91.60;;;;;;4940819;28;20053;-81
2022/08/03 01:08:41;;;;;;;2.78;0.43;;;23.60;91.00;;;;;;4943840;28;20031;-81
2022/08/03 01:11:23;;;;;;;5.32;0.40;;;24.00;89.00;;;;;;4940255;28;20672;-81
2022/08/03 01:14:12;;;;;;;2.50;0.30;;;24.10;89.80;;;;;;4933830;29;20039;-79
2022/08/03 01:17:01;;;;;;;0.38;0.30;;;24.60;88.50;;;;;;4950338;29;20028;-81
2022/08/03 01:19:37;;;;;;;1.20;0.43;;;24.70;88.00;;;;;;4938825;29;20040;-81
2022/08/03 01:22:26;;;;;;;1.02;0.57;;;24.80;88.00;;;;;;4941391;29;20024;-80
2022/08/03 01:25:15;;;;;;;0.70;0.30;;;24.80;87.50;;;;;;4947886;29;20509;-79
2022/08/03 01:27:45;;;;;;;2.00;0.35;;;24.90;86.10;;;;;;4950865;28;20066;-78
2022/08/03 01:30:12;;;;;;;1.42;0.30;;;24.60;87.30;;;;;;4950230;29;20058;-78
2022/08/03 01:33:02;;;;;;;0.77;0.32;;;24.60;87.60;;;;;;4939640;28;20036;-81
2022/08/03 01:35:44;;;;;;;1.35;0.30;;;24.60;88.00;;;;;;4948131;29;20046;-79
2022/08/03 01:38:34;;;;;;;0.60;0.30;;;24.60;86.90;;;;;;4948232;29;20038;-79
2022/08/03 01:41:13;;;;;;;0.75;0.30;;;24.60;87.40;;;;;;4942494;28;20035;-79
2022/08/03 01:43:44;;;;;;;2.28;0.35;;;24.70;88.10;;;;;;4943288;28;20430;-78
2022/08/03 01:46:12;;;;;;;0.40;0.28;;;25.00;87.50;;;;;;4950280;29;20070;-79
2022/08/03 01:48:44;;;;;;;0.88;0.40;;;25.30;86.50;;;;;;4940878;28;20020;-79
2022/08/03 01:51:13;;;;;;;2.13;0.40;;;25.60;87.80;;;;;;4944946;29;20115;-81
2022/08/03 01:53:42;;;;;;;1.05;0.30;;;25.80;86.10;;;;;;4946935;29;20149;-81
2022/08/03 01:56:11;;;;;;;0.50;0.50;;;25.80;87.00;;;;;;4950114;29;20032;-81
2022/08/03 01:58:40;;;;;;;0.75;0.30;;;26.10;85.60;;;;;;4943433;29;20510;-83
2022/08/03 02:01:09;;;;;;;1.63;0.30;;;26.30;86.20;;;;;;4941076;28;20198;-83
2022/08/03 02:03:42;;;;;;;2.22;0.28;;;26.80;85.20;;;;;;4946751;29;20406;-80
2022/08/03 02:06:13;;;;;;;0.38;0.38;;;26.50;86.20;;;;;;4940735;28;20450;-81
2022/08/03 02:08:44;;;;;;;3.00;0.35;;;26.70;85.30;;;;;;4948011;29;20122;-81
2022/08/03 02:11:12;;;;;;;0.52;0.20;;;26.50;85.80;;;;;;4940091;29;20028;-81
2022/08/03 02:13:41;;;;;;;1.95;0.22;;;26.80;85.90;;;;;;4947266;29;20030;-82
2022/08/03 02:16:09;;;;;;;1.38;0.30;;;26.50;84.50;;;;;;4947867;28;20038;-80
2022/08/03 02:18:38;;;;;;;1.38;0.47;;;26.20;83.20;;;;;;4950875;28;20428;-81
2022/08/03 02:21:09;;;;;;;0.80;0.30;;;26.30;84.80;;;;;;4951364;28;20027;-75
2022/08/03 02:23:38;;;;;;;0.98;0.60;;;26.30;83.60;;;;;;4953378;29;20042;-81
2022/08/03 02:26:10;;;;;;;2.40;0.30;;;26.00;83.40;;;;;;4954064;29;20287;-80
2022/08/03 02:28:41;;;;;;;1.15;0.30;;;25.60;83.30;;;;;;4940353;29;20039;-77
2022/08/03 02:31:22;;;;;;;0.35;0.20;;;25.40;84.00;;;;;;4955244;29;20439;-78
2022/08/03 02:33:53;;;;;;;2.40;0.20;;;25.50;84.50;;;;;;4944082;29;20091;-79
2022/08/03 02:36:25;;;;;;;2.50;0.30;;;25.50;85.50;;;;;;4958056;28;20038;-76
2022/08/03 02:38:56;;;;;;;2.22;0.43;;;25.70;84.50;;;;;;4946484;29;20115;-76
2022/08/03 02:41:30;;;;;;;1.27;0.30;;;25.40;84.70;;;;;;4936977;29;20038;-77
2022/08/03 02:44:02;;;;;;;1.10;0.25;;;25.30;85.10;;;;;;4950043;29;20485;-75
2022/08/03 02:46:33;;;;;;;0.60;0.20;;;25.10;85.50;;;;;;4950961;29;20486;-77
2022/08/03 02:49:04;;;;;;;1.98;0.30;;;24.90;85.00;;;;;;4944931;28;20039;-77
2022/08/03 02:51:35;;;;;;;0.73;0.20;;;25.00;85.50;;;;;;4952113;29;20035;-79
2022/08/03 02:54:03;;;;;;;1.85;0.32;;;24.90;85.30;;;;;;4951415;28;20086;-78
2022/08/03 02:56:32;;;;;;;2.78;0.22;;;25.10;85.50;;;;;;4941977;28;20027;-81
2022/08/03 02:59:00;;;;;;;1.02;0.20;;;25.40;85.00;;;;;;4947129;28;20024;-78
2022/08/03 03:01:30;;;;;;;0.57;0.10;;;25.40;85.90;;;;;;4953831;29;20279;-79
2022/08/03 03:03:59;;;;;;;2.40;0.20;;;25.40;84.90;;;;;;4942816;29;20429;-81
2022/08/03 03:06:29;;;;;;;0.63;0.17;;;25.20;86.60;;;;;;4952058;28;20368;-77
2022/08/03 03:08:58;;;;;;;0.95;0.25;;;25.30;86.40;;;;;;4951605;29;20027;-79
2022/08/03 03:11:26;;;;;;;0.20;0.15;;;25.50;85.70;;;;;;4936562;29;20044;-81
2022/08/03 03:13:56;;;;;;;0.88;0.20;;;25.60;85.90;;;;;;4949112;28;20417;-81
2022/08/03 03:16:25;;;;;;;0.63;0.20;;;25.50;86.00;;;;;;4941668;28;20050;-77
2022/08/03 03:18:54;;;;;;;1.80;0.20;;;25.40;86.20;;;;;;4944267;28;20374;-79
2022/08/03 03:21:22;;;;;;;1.02;0.22;;;25.40;86.60;;;;;;4949398;28;20043;-79
2022/08/03 03:23:51;;;;;;;0.85;0.30;;;25.60;86.90;;;;;;4947082;29;20478;-76
2022/08/03 03:26:19;;;;;;;0.30;0.20;;;25.70;86.70;;;;;;4940133;28;20893;-74
2022/08/03 03:28:47;;;;;;;1.45;0.30;;;25.60;87.60;;;;;;4945525;28;20023;-76
2022/08/03 03:31:15;;;;;;;0.30;0.22;;;25.50;87.10;;;;;;4936010;29;20073;-73
2022/08/03 03:33:42;;;;;;;0.40;0.10;;;25.10;87.10;;;;;;4948782;29;20051;-75
2022/08/03 03:36:10;;;;;;;0.57;0.20;;;25.00;87.50;;;;;;4939675;29;20100;-77
2022/08/03 03:38:38;;;;;;;1.40;0.20;;;24.80;88.70;;;;;;4943247;28;20042;-76
2022/08/03 03:41:05;;;;;;;0.75;0.20;;;24.70;88.40;;;;;;4949027;28;20024;-76
2022/08/03 03:43:33;;;;;;;0.68;0.40;;;24.60;88.40;;;;;;4940063;28;20118;-79
2022/08/03 03:46:01;;;;;;;0.60;0.13;;;24.50;89.90;;;;;;4940633;29;20481;-78
2022/08/03 03:48:28;;;;;;;0.47;0.20;;;24.40;90.10;;;;;;4941796;29;20042;-76
2022/08/03 03:50:56;;;;;;;3.13;0.20;;;24.20;90.00;;;;;;4952838;29;20368;-75
2022/08/03 03:53:24;;;;;;;2.45;0.10;;;24.10;90.20;;;;;;4944892;28;20038;-73
2022/08/03 03:55:54;;;;;;;2.28;0.25;;;23.90;90.60;;;;;;4947863;28;20372;-75
2022/08/03 03:58:22;;;;;;;0.47;0.30;;;23.80;90.80;;;;;;4945783;29;20430;-76
2022/08/03 04:00:49;;;;;;;2.45;0.30;;;23.80;91.00;;;;;;4945322;28;20113;-80
2022/08/03 04:03:17;;;;;;;0.60;0.15;;;23.70;90.70;;;;;;4948670;29;20031;-81
2022/08/03 04:11:47;;;;;;;0.20;0.20;;;23.70;90.50;;;;;;4952235;29;20147;-78
2022/08/03 04:14:20;;;;;;;0.30;0.20;;;23.60;91.00;;;;;;4926817;29;20039;-79
2022/08/03 04:16:52;;;;;;;0.77;0.40;;;23.60;91.40;;;;;;4947115;29;20019;-83
2022/08/03 04:19:45;;;;;;;1.42;0.10;;;23.60;91.20;;;;;;4946883;29;20118;-81
2022/08/03 04:22:17;;;;;;;0.10;0.10;;;23.50;91.30;;;;;;4948840;28;20387;-87
2022/08/03 04:24:59;;;;;;;0.43;0.13;;;23.50;91.50;;;;;;4950820;28;20061;-87
2022/08/03 04:27:32;;;;;;;0.50;0.30;;;23.50;91.20;;;;;;4935534;28;20039;-83
2022/08/03 04:30:04;;;;;;;1.30;0.20;;;23.50;91.00;;;;;;4943029;28;20045;-83
2022/08/03 04:32:32;;;;;;;1.48;0.30;;;23.40;91.10;;;;;;4951086;29;20066;-87
2022/08/03 04:35:00;;;;;;;3.03;0.80;;;23.50;91.30;;;;;;4943701;28;20043;-79
2022/08/03 04:37:50;;;;;;;0.60;0.20;;;23.50;91.30;;;;;;4937659;29;20067;-78
2022/08/03 04:40:47;;;;;;;1.92;0.20;;;23.50;91.40;;;;;;4940113;29;20027;-81
2022/08/03 04:43:18;;;;;;;1.52;0.40;;;23.40;91.00;;;;;;4931159;28;20031;-74
2022/08/03 04:45:47;;;;;;;0.50;0.10;;;23.40;91.10;;;;;;4949001;29;20107;-73
2022/08/03 04:48:16;;;;;;;1.45;0.22;;;23.20;91.10;;;;;;4924923;29;20606;-80
2022/08/03 04:50:43;;;;;;;3.33;0.28;;;23.20;91.50;;;;;;4943955;29;20038;-75
2022/08/03 04:53:11;;;;;;;2.60;0.25;;;23.20;91.40;;;;;;4945783;28;20047;-74
2022/08/03 04:55:38;;;;;;;0.30;0.20;;;23.20;91.80;;;;;;4944943;29;20066;-77
2022/08/03 04:58:06;;;;;;;0.15;0.15;;;23.20;91.20;;;;;;4941900;29;20031;-74
2022/08/03 05:00:33;;;;;;;1.70;0.20;;;23.20;91.40;;;;;;4944169;29;20039;-80
2022/08/03 05:03:01;;;;;;;0.40;0.20;;;23.30;91.50;;;;;;4945340;28;20042;-73
2022/08/03 05:05:28;;;;;;;0.22;0.13;;;23.20;91.30;;;;;;4928326;28;21017;-79
2022/08/03 05:07:56;;;;;;;0.60;0.20;;;23.20;91.80;;;;;;4928447;28;20874;-81
2022/08/03 05:10:23;;;;;;;1.55;0.30;;;23.20;91.50;;;;;;4936777;28;20031;-76
2022/08/03 05:12:51;;;;;;;1.13;0.50;;;23.10;91.60;;;;;;4938434;28;20050;-77
2022/08/03 05:15:18;;;;;;;1.10;0.40;;;23.10;91.90;;;;;;4933988;28;20968;-79
2022/08/03 05:17:45;;;;;;;0.65;0.22;;;23.00;91.50;;;;;;4932798;28;20054;-80
2022/08/03 05:20:13;;;;;;;1.27;0.30;;;22.90;91.40;;;;;;4937770;28;20038;-79
2022/08/03 05:22:40;;;;;;;0.50;0.22;;;22.90;91.60;;;;;;4934465;28;20047;-80
2022/08/03 05:25:08;;;;;;;1.65;0.22;;;22.90;92.10;;;;;;4940829;28;20051;-81
2022/08/03 05:27:35;;;;;;;1.00;0.20;;;22.90;91.80;;;;;;4943274;28;20067;-80
2022/08/03 05:30:03;;;;;;;0.47;0.32;;;23.00;92.10;;;;;;4947124;28;20027;-78
2022/08/03 05:32:30;;;;;;;0.65;0.28;;;23.00;91.70;;;;;;4949608;28;20047;-80
2022/08/03 05:34:58;;;;;;;1.98;0.20;;;23.00;91.80;;;;;;4949205;28;20046;-82
2022/08/03 05:37:26;;;;;;;0.80;0.25;;;23.00;91.70;;;;;;4949283;28;20027;-81
2022/08/03 05:39:53;;;;;;;0.50;0.20;;;23.00;91.50;;;;;;4929333;29;20046;-80
2022/08/03 05:42:20;;;;;;;1.42;0.30;;;23.00;91.70;;;;;;4948659;28;20208;-80
2022/08/03 05:44:48;;;;;;;1.13;0.30;;;23.00;92.00;;;;;;4953999;28;20027;-79
2022/08/03 05:47:15;;;;;;;1.23;0.30;;;23.00;91.70;;;;;;4950324;28;20698;-78
2022/08/03 05:49:43;;;;;;;2.00;0.28;;;23.00;91.70;;;;;;4941344;28;20031;-79
2022/08/03 05:52:11;;;;;;;0.40;0.40;;;23.00;91.60;;;;;;4942533;28;20047;-82
2022/08/03 05:54:38;;;;;;;1.58;0.30;;;23.10;91.50;;;;;;4940440;28;20105;-77
2022/08/03 05:57:06;;;;;;;0.50;0.10;;;23.30;92.00;;;;;;4950025;28;20053;-78
2022/08/03 05:59:33;;;;;;;1.08;0.20;;;23.30;91.70;;;;;;4951775;28;20482;-78
2022/08/03 06:02:00;;;;;;;0.15;0.10;;;23.40;91.40;;;;;;4947291;28;20502;-79
2022/08/03 06:04:28;;;;;;;1.63;0.50;;;23.50;91.30;;;;;;4947287;28;20443;-80
2022/08/03 06:06:55;;;;;;;1.65;0.30;;;23.50;91.50;;;;;;4952588;28;20530;-79
2022/08/03 06:09:23;;;;;;;1.23;0.25;;;23.50;91.40;;;;;;4951801;28;20027;-77
2022/08/03 06:11:50;;;;;;;2.10;0.30;;;23.60;91.00;;;;;;4954719;28;20469;-78
2022/08/03 06:14:17;;;;;;;0.80;0.30;;;23.50;91.30;;;;;;4946646;28;20544;-80
2022/08/03 06:16:45;;;;;;;0.95;0.13;;;23.50;91.30;;;;;;4952339;28;20035;-81
2022/08/03 06:19:12;;;;;;;0.90;0.35;;;23.50;91.10;;;;;;4954663;28;20105;-82
2022/08/03 06:21:40;;;;;;;0.80;0.30;;;23.50;90.90;;;;;;4958087;28;20037;-81
2022/08/03 06:24:07;;;;;;;0.75;0.20;;;23.50;91.10;;;;;;4947847;28;20767;-82
2022/08/03 06:26:35;;;;;;;2.38;0.32;;;23.50;91.30;;;;;;4951248;28;20050;-81
2022/08/03 06:29:02;;;;;;;1.08;0.38;;;23.50;91.40;;;;;;4950152;28;20062;-81
2022/08/03 06:31:30;;;;;;;2.42;0.63;;;23.40;91.70;;;;;;4950639;28;20046;-82
2022/08/03 06:33:57;;;;;;;1.15;0.85;;;23.30;91.70;;;;;;4956701;28;20051;-81
2022/08/03 06:36:30;;;;;;;2.72;0.32;;;23.20;91.90;;;;;;4954098;28;20116;-83
2022/08/03 06:38:58;;;;;;;3.03;0.50;;;23.10;92.30;;;;;;4933409;28;20062;-79
2022/08/03 06:41:27;;;;;;;0.60;0.30;;;23.00;92.70;;;;;;4958872;28;20142;-81
2022/08/03 06:43:54;;;;;;;1.10;0.28;;;22.80;92.80;;;;;;4950212;28;20130;-80
2022/08/03 06:46:22;;;;;;;1.55;0.30;;;22.70;92.90;;;;;;4952133;28;20110;-81
2022/08/03 06:48:49;;;;;;;1.50;0.40;;;22.60;93.00;;;;;;4948916;28;20122;-80
2022/08/03 06:51:17;;;;;;;0.77;0.35;;;22.50;93.40;;;;;;4952773;28;20483;-81
2022/08/03 06:53:44;;;;;;;0.82;0.50;;;22.30;93.50;;;;;;4950016;28;20116;-81
2022/08/03 06:56:11;;;;;;;4.95;0.40;;;22.10;93.70;;;;;;4946953;28;20731;-81
2022/08/03 06:58:39;;;;;;;1.63;0.35;;;22.00;94.10;;;;;;4949353;28;20038;-82
2022/08/03 07:01:06;;;;;;;5.45;0.57;;;21.80;94.20;;;;;;4950853;28;20046;-80
2022/08/03 07:03:34;;;;;;;0.90;0.50;;;21.70;94.30;;;;;;4948395;28;20385;-81
2022/08/03 07:06:01;;;;;;;0.60;0.22;;;21.60;94.40;;;;;;4941713;28;20258;-76
2022/08/03 07:08:28;;;;;;;0.63;0.38;;;21.50;94.60;;;;;;4940235;28;20031;-78
2022/08/03 07:10:56;;;;;;;1.67;0.22;;;21.40;94.70;;;;;;4942511;28;20027;-77
2022/08/03 07:13:25;;;;;;;2.33;0.50;;;21.30;94.80;;;;;;4936167;28;20102;-84
2022/08/03 07:15:53;;;;;;;0.63;0.22;;;21.20;95.10;;;;;;4940543;28;20027;-80
2022/08/03 07:18:20;;;;;;;1.30;0.30;;;21.10;95.20;;;;;;4937736;28;20497;-80
2022/08/03 07:20:48;;;;;;;1.08;0.40;;;21.00;95.20;;;;;;4941630;28;20054;-80
2022/08/03 07:23:16;;;;;;;2.00;0.55;;;20.90;95.50;;;;;;4944604;28;20430;-83
2022/08/03 07:25:43;;;;;;;0.75;0.43;;;20.80;95.40;;;;;;4939337;28;20040;-82
2022/08/03 07:28:10;;;;;;;2.92;0.60;;;20.70;95.60;;;;;;4936910;28;20074;-82
2022/08/03 07:30:38;;;;;;;4.28;0.63;;;20.60;95.90;;;;;;4938139;28;20039;-81
2022/08/03 07:33:05;;;;;;;14.40;0.90;;;20.50;96.00;;;;;;4935944;28;20526;-78
2022/08/03 07:35:33;;;;;;;1.73;0.77;;;20.40;96.30;;;;;;4938311;28;20051;-81
2022/08/03 07:38:00;;;;;;;0.65;0.47;;;20.30;96.40;;;;;;4939398;28;20059;-81
2022/08/03 07:40:27;;;;;;;3.03;0.60;;;20.30;96.30;;;;;;4939061;28;20558;-80
2022/08/03 07:42:55;;;;;;;2.88;0.63;;;20.20;96.60;;;;;;4920782;28;20043;-78
2022/08/03 07:45:23;;;;;;;4.15;0.90;;;20.00;96.70;;;;;;4939232;28;20042;-83
2022/08/03 07:47:50;;;;;;;1.77;0.80;;;20.00;96.80;;;;;;4942939;28;20038;-78
2022/08/03 07:50:17;;;;;;;3.08;1.77;;;19.90;97.00;;;;;;4938135;28;20031;-82
2022/08/03 07:52:52;;;;;;;1.40;0.95;;;19.80;97.00;;;;;;4939754;28;20039;-82
2022/08/03 07:55:25;;;;;;;3.40;1.00;;;19.70;97.20;;;;;;4943138;28;20031;-81
2022/08/03 07:58:21;;;;;;;1.23;0.90;;;19.60;97.40;;;;;;4928354;28;20106;-80
2022/08/03 08:00:52;;;;;;;3.30;0.77;;;19.50;97.60;;;;;;4939928;28;20066;-78
2022/08/03 08:03:20;;;;;;;2.55;0.80;;;19.50;97.80;;;;;;4934803;28;20038;-79
2022/08/03 08:05:48;;;;;;;1.48;0.73;;;19.40;97.90;;;;;;4941772;28;20537;-77
2022/08/03 08:08:20;;;;;;;1.02;0.65;;;19.40;98.00;;;;;;4932782;28;20435;-81
2022/08/03 08:10:48;;;;;;;2.80;1.13;;;19.40;98.10;;;;;;4939463;28;20051;-82
2022/08/03 08:13:15;;;;;;;1.65;1.20;;;19.40;98.20;;;;;;4939869;28;20050;-83
2022/08/03 08:15:43;;;;;;;1.63;0.90;;;19.30;98.20;;;;;;4941113;28;20038;-83
2022/08/03 08:18:11;;;;;;;2.17;0.98;;;19.30;98.30;;;;;;4948082;28;20054;-83
2022/08/03 08:20:38;;;;;;;3.22;0.95;;;19.20;98.40;;;;;;4947122;28;20039;-81
2022/08/03 08:23:08;;;;;;;2.25;0.90;;;19.20;98.40;;;;;;4956244;28;20382;-83
2022/08/03 08:25:36;;;;;;;2.63;0.95;;;19.10;98.60;;;;;;4953795;28;20042;-82
2022/08/03 08:28:03;;;;;;;3.42;0.80;;;19.10;98.60;;;;;;4954681;28;20123;-81
2022/08/03 08:30:32;;;;;;;2.35;1.17;;;19.00;98.70;;;;;;4948372;28;20035;-80
2022/08/03 08:33:00;;;;;;;1.60;0.93;;;19.00;98.80;;;;;;4952513;28;20046;-80
2022/08/03 08:35:27;;;;;;;3.03;0.77;;;18.90;99.00;;;;;;4948641;28;20126;-83
2022/08/03 08:37:54;;;;;;;2.38;0.95;;;18.90;98.90;;;;;;4947539;28;20138;-81
2022/08/03 08:40:23;;;;;;;2.10;0.60;;;18.90;99.00;;;;;;4948532;28;20051;-77
2022/08/03 08:42:50;;;;;;;1.52;0.40;;;18.90;99.10;;;;;;4945747;28;20038;-82
2022/08/03 08:45:18;;;;;;;2.30;0.60;;;18.90;99.10;;;;;;4950813;28;20027;-82
2022/08/03 08:47:48;;;;;;;1.75;0.50;;;18.90;99.10;;;;;;4950431;28;20043;-82
2022/08/03 08:50:20;;;;;;;2.03;0.50;;;18.90;99.10;;;;;;4950631;28;20094;-79
2022/08/03 08:52:49;;;;;;;1.23;0.57;;;18.90;99.20;;;;;;4947301;28;20046;-80
2022/08/03 08:55:22;;;;;;;1.75;0.60;;;18.90;99.30;;;;;;4948032;28;20035;-80
2022/08/03 08:58:01;;;;;;;1.05;0.50;;;18.80;99.30;;;;;;4946652;28;20110;-83
2022/08/03 09:00:29;;;;;;;2.15;1.08;;;18.90;99.20;;;;;;4949381;28;20038;-80
2022/08/03 09:02:57;;;;;;;2.15;0.57;;;18.90;99.20;;;;;;4935058;28;20031;-81
2022/08/03 09:05:24;;;;;;;6.22;1.35;;;18.80;99.40;;;;;;4947813;28;20027;-80
2022/08/03 09:07:52;;;;;;;2.38;0.88;;;18.80;99.40;;;;;;4960840;28;20031;-83
2022/08/03 09:10:22;;;;;;;1.67;0.68;;;18.70;99.40;;;;;;4946972;28;20127;-83
2022/08/03 09:12:51;;;;;;;1.67;0.82;;;18.80;99.50;;;;;;4959668;28;20034;-82
2022/08/03 09:15:30;;;;;;;1.92;0.60;;;18.70;99.60;;;;;;4953919;28;20034;-78
2022/08/03 09:17:59;;;;;;;0.85;0.60;;;18.70;99.80;;;;;;4951256;28;20150;-79
2022/08/03 09:20:30;;;;;;;4.40;0.85;;;18.60;99.70;;;;;;4952764;28;20075;-81
2022/08/03 09:23:03;;;;;;;1.13;0.70;;;18.60;99.90;;;;;;4950057;28;20157;-79
2022/08/03 09:25:39;;;;;;;1.92;0.82;;;18.60;99.90;;;;;;4954815;28;20359;-81
2022/08/03 09:28:16;;;;;;;2.67;0.80;;;18.50;99.90;;;;;;4950918;28;21066;-81
2022/08/03 09:30:58;;;;;;;3.25;0.95;;;18.50;99.90;;;;;;4949589;28;20111;-79
2022/08/03 09:33:25;;;;;;;1.50;0.55;;;18.50;99.90;;;;;;4946930;28;20035;-80
2022/08/03 09:35:55;;;;;;;1.77;1.10;;;18.40;99.90;;;;;;4957509;28;20031;-79
2022/08/03 09:38:26;;;;;;;3.53;1.00;;;18.40;99.90;;;;;;4949749;28;20086;-81
2022/08/03 09:40:55;;;;;;;2.40;1.20;;;18.40;99.90;;;;;;4952910;28;20035;-79
2022/08/03 09:43:24;;;;;;;4.18;0.73;;;18.40;99.90;;;;;;4955434;28;21484;-80
2022/08/03 09:46:03;;;;;;;4.15;0.77;;;18.40;99.90;;;;;;4961420;28;20338;-81
2022/08/03 09:48:36;;;;;;;2.13;0.77;;;18.30;99.90;;;;;;4949270;28;20027;-81
2022/08/03 09:51:04;;;;;;;2.53;1.33;;;18.40;99.90;;;;;;4950169;28;20035;-78
2022/08/03 09:53:41;;;;;;;5.63;3.42;;;18.30;99.90;;;;;;4952257;28;20050;-81
2022/08/03 09:56:08;;;;;;;6.25;4.57;;;18.30;99.90;;;;;;4954340;28;20051;-79
2022/08/03 09:58:49;;;;;;;1.92;1.00;;;18.20;99.90;;;;;;4951609;28;20031;-80
2022/08/03 10:01:17;;;;;;;10.48;3.25;;;18.30;99.90;;;;;;4957740;28;20039;-78
2022/08/03 10:03:58;;;;;;;7.28;2.92;;;18.20;99.90;;;;;;4951834;28;20043;-79
2022/08/03 10:06:26;;;;;;;2.83;1.70;;;18.20;99.90;;;;;;4958093;28;20027;-79
2022/08/03 10:09:08;;;;;;;3.53;2.70;;;18.30;99.90;;;;;;4958384;28;20062;-79
2022/08/03 10:11:37;;;;;;;3.75;2.35;;;18.30;99.90;;;;;;4952348;28;20058;-80
2022/08/03 10:14:17;;;;;;;4.82;2.92;;;18.30;99.90;;;;;;4951035;28;20031;-79
2022/08/03 10:16:46;;;;;;;5.00;2.13;;;18.20;99.90;;;;;;4947814;28;20031;-79
2022/08/03 10:19:14;;;;;;;4.35;2.25;;;18.30;99.90;;;;;;4950273;28;20039;-80
2022/08/03 10:21:57;;;;;;;3.58;1.92;;;18.20;99.90;;;;;;4950349;28;20038;-77
2022/08/03 10:24:29;;;;;;;8.30;3.85;;;18.10;99.90;;;;;;4950811;28;20038;-80
2022/08/03 10:27:07;;;;;;;23.65;11.38;;;18.10;99.90;;;;;;4952143;28;20035;-78
2022/08/03 10:29:42;;;;;;;8.25;4.07;;;18.00;99.90;;;;;;4947574;28;20110;-82
2022/08/03 10:32:30;;;;;;;4.65;1.77;;;18.00;99.90;;;;;;4947868;28;20114;-79
2022/08/03 10:35:07;;;;;;;19.10;11.10;;;18.00;99.90;;;;;;4956210;28;20102;-81
2022/08/03 10:37:42;;;;;;;4.20;1.50;;;17.90;99.90;;;;;;4949851;28;20308;-82
2022/08/03 10:40:15;;;;;;;2.17;0.90;;;18.00;99.90;;;;;;4948738;28;20364;-78
2022/08/03 10:42:46;;;;;;;1.27;0.95;;;18.00;99.90;;;;;;4947664;28;20402;-78
2022/08/03 10:45:21;;;;;;;1.27;0.70;;;18.00;99.90;;;;;;4955047;28;20031;-80
2022/08/03 10:47:49;;;;;;;4.93;1.02;;;18.00;99.90;;;;;;4950943;28;20059;-80
2022/08/03 10:50:18;;;;;;;1.95;0.80;;;18.00;99.90;;;;;;4948390;28;20023;-80
2022/08/03 10:53:01;;;;;;;1.75;0.70;;;17.90;99.90;;;;;;4948933;28;20043;-79
2022/08/03 10:58:39;;;;;;;2.42;0.80;;;18.00;99.90;;;;;;4949957;28;20094;-82
2022/08/03 11:01:11;;;;;;;2.13;0.90;;;18.00;99.90;;;;;;4954665;28;20059;-82
2022/08/03 11:03:54;;;;;;;1.10;0.55;;;17.90;99.90;;;;;;4952588;28;20043;-80
2022/08/03 11:06:25;;;;;;;1.48;0.77;;;17.90;99.90;;;;;;4950437;28;20038;-78
2022/08/03 11:09:16;;;;;;;2.58;0.52;;;17.90;99.90;;;;;;4952722;28;20113;-82
2022/08/03 11:11:45;;;;;;;1.98;0.70;;;17.90;99.90;;;;;;4951337;28;20031;-82
2022/08/03 11:14:22;;;;;;;2.40;0.90;;;17.90;99.90;;;;;;4950744;28;20047;-82
2022/08/03 11:17:06;;;;;;;1.60;0.68;;;17.90;99.90;;;;;;4951586;28;20473;-83
2022/08/03 11:19:50;;;;;;;1.20;0.57;;;17.90;99.90;;;;;;4951831;28;20046;-83
2022/08/03 11:22:18;;;;;;;2.95;0.80;;;17.90;99.90;;;;;;4951674;28;20035;-79
2022/08/03 11:24:49;;;;;;;1.05;0.50;;;17.80;99.90;;;;;;4953201;28;20077;-82
2022/08/03 11:27:24;;;;;;;2.53;0.40;;;17.80;99.90;;;;;;4951705;28;20046;-81
2022/08/03 11:30:19;;;;;;;2.53;0.73;;;17.80;99.90;;;;;;4948215;28;20027;-79
2022/08/03 11:32:46;;;;;;;1.50;0.45;;;17.70;99.90;;;;;;4947336;28;20085;-81
2022/08/03 11:35:24;;;;;;;1.98;0.70;;;17.60;99.90;;;;;;4949153;28;20127;-81
2022/08/03 11:37:54;;;;;;;4.32;0.70;;;17.60;99.90;;;;;;4934194;28;20039;-78
2022/08/03 11:40:42;;;;;;;1.10;0.65;;;17.60;99.90;;;;;;4947965;28;20114;-79
2022/08/03 11:43:33;;;;;;;3.40;0.85;;;17.50;99.90;;;;;;4955505;28;20090;-82
2022/08/03 11:46:08;;;;;;;2.42;0.63;;;17.50;99.90;;;;;;4954045;28;20122;-81
2022/08/03 11:48:37;;;;;;;0.75;0.68;;;17.50;99.90;;;;;;4947697;28;20058;-82
2022/08/03 11:51:07;;;;;;;3.35;0.95;;;17.60;99.90;;;;;;4950699;28;20029;-78
2022/08/03 11:53:35;;;;;;;1.00;0.50;;;17.50;99.90;;;;;;4958444;28;20069;-82
2022/08/03 11:56:03;;;;;;;2.60;1.02;;;17.50;99.90;;;;;;4953909;28;20078;-77
2022/08/03 11:58:31;;;;;;;3.58;0.90;;;17.50;99.90;;;;;;4950155;28;20342;-81
2022/08/03 12:01:06;;;;;;;1.98;0.50;;;17.50;99.90;;;;;;4958066;28;20037;-82
2022/08/03 12:03:35;;;;;;;1.23;0.60;;;17.50;99.90;;;;;;4952917;28;20382;-82
2022/08/03 12:06:03;;;;;;;1.35;0.73;;;17.40;99.90;;;;;;4949619;28;20051;-81
2022/08/03 12:08:33;;;;;;;3.60;0.90;;;17.40;99.90;;;;;;4947845;28;20871;-81
2022/08/03 12:11:05;;;;;;;2.33;0.75;;;17.40;99.90;;;;;;4945305;28;20118;-80
2022/08/03 12:13:47;;;;;;;1.48;0.90;;;17.40;99.90;;;;;;4930506;28;20081;-81
2022/08/03 12:16:22;;;;;;;1.25;0.70;;;17.40;99.90;;;;;;4944143;28;20035;-81
2022/08/03 12:19:00;;;;;;;1.52;0.70;;;17.30;99.90;;;;;;4945507;28;20039;-80
2022/08/03 12:21:29;;;;;;;3.50;0.90;;;17.20;99.90;;;;;;4954148;28;20055;-81
2022/08/03 12:24:02;;;;;;;2.63;1.15;;;17.10;99.90;;;;;;4945156;28;20090;-81
2022/08/03 12:26:41;;;;;;;1.65;1.55;;;17.10;99.90;;;;;;4956157;28;20037;-82
2022/08/03 12:29:16;;;;;;;1.30;0.60;;;17.00;99.90;;;;;;4954256;28;20023;-82
2022/08/03 12:31:43;;;;;;;1.15;0.95;;;17.00;99.90;;;;;;4944713;28;20122;-81
2022/08/03 12:34:11;;;;;;;1.50;1.02;;;16.90;99.90;;;;;;4945087;28;20129;-81
2022/08/03 12:36:48;;;;;;;2.33;0.60;;;16.80;99.90;;;;;;4939255;28;20038;-80
2022/08/03 12:39:16;;;;;;;1.42;0.60;;;16.80;99.90;;;;;;4935076;28;20035;-79
2022/08/03 12:41:43;;;;;;;3.50;1.02;;;16.80;99.90;;;;;;4941748;28;20058;-81
2022/08/03 12:44:11;;;;;;;3.85;0.85;;;16.70;99.90;;;;;;4940722;28;20033;-83
2022/08/03 12:46:42;;;;;;;2.45;1.35;;;16.60;99.90;;;;;;4942399;28;20031;-82
2022/08/03 12:49:12;;;;;;;2.78;1.20;;;16.60;99.90;;;;;;4947576;28;20066;-80
2022/08/03 12:51:42;;;;;;;5.00;1.38;;;16.60;99.90;;;;;;4947935;28;20110;-81
2022/08/03 12:54:25;;;;;;;2.83;1.17;;;16.60;99.90;;;;;;4942241;28;20039;-78
2022/08/03 12:57:06;;;;;;;3.05;0.77;;;16.60;99.90;;;;;;4949086;28;20035;-79
2022/08/03 12:59:47;;;;;;;0.75;0.60;;;16.50;99.90;;;;;;4948300;28;20073;-81
2022/08/03 13:02:22;;;;;;;1.63;0.80;;;16.50;99.90;;;;;;4947059;28;20039;-78
2022/08/03 13:04:51;;;;;;;1.23;0.82;;;16.50;99.90;;;;;;4937082;28;20465;-78
2022/08/03 13:07:19;;;;;;;1.50;0.60;;;16.50;99.90;;;;;;4936817;28;20130;-77
2022/08/03 13:09:50;;;;;;;2.75;1.00;;;16.50;99.90;;;;;;4946548;28;20127;-78
2022/08/03 13:12:18;;;;;;;2.35;0.60;;;16.40;99.90;;;;;;4943042;28;20486;-76
2022/08/03 13:14:49;;;;;;;0.82;0.68;;;16.40;99.90;;;;;;4943222;28;20037;-78